PWSweather.com
Personal Weather Stations
Station Observations
WXGLH1124
Southern Oaks, Indianapolis, IN 46217

Southern OaksIndianapolis, IN 46217

Lat: 39.65113, Lon: -86.16866

Elevation: 720

Station Type: Vantage Pro2

High Low Average
Temperature 57.7°F14.3°C 43.7°F6.5°C 50.5°F10.3°C
Dew Point 55.4°F13.0°C 41.8°F5.4°C 48.4°F9.1°C
Winds 16.0 mph 25.7 kmh Calm Calm 4.0 mph SE6.4 kmh SE
Wind Gusts 23.0 mph37.0 kmh 3.0 mph4.8 kmh 9.0 mph14.5 kmh
Humidity 93% 91% 93%
Pressure 30.02 in1016.6 mb 29.42 in996.3 mb -
Precipitation 0.00 in0.0 mm - -
Hour Temp Dew Point Humidity Winds Wind Gusts Pressure Precip Precip Rate Daily Precip Total
12:00 AM 43.7°F6.5°C 41.8°F5.4°C 93% Calm Calm 3.0 mph4.8 kmh 30.03 in1016.9 mb 0.00 in0.0 mm 0.00 in0.0 mm 0.00 in0.0 mm
12:05 AM 43.8°F6.6°C 41.9°F5.5°C 93% Calm Calm 2.0 mph3.2 kmh 30.02 in1016.6 mb 0.00 in0.0 mm 0.00 in0.0 mm 0.00 in0.0 mm
12:10 AM 43.8°F6.6°C 41.9°F5.5°C 93% Calm Calm 4.0 mph6.4 kmh 30.01 in1016.3 mb 0.00 in0.0 mm 0.00 in0.0 mm 0.00 in0.0 mm
12:15 AM 43.9°F6.6°C 42.0°F5.6°C 93% Calm Calm 5.0 mph8.0 kmh 30.01 in1016.3 mb 0.00 in0.0 mm 0.00 in0.0 mm 0.00 in0.0 mm
12:20 AM 44.0°F6.7°C 42.1°F5.6°C 93% Calm Calm 4.0 mph6.4 kmh 30.02 in1016.6 mb 0.00 in0.0 mm 0.00 in0.0 mm 0.00 in0.0 mm
12:24 AM 44.1°F6.7°C 42.2°F5.7°C 93% Calm Calm 6.0 mph9.7 kmh 30.01 in1016.3 mb 0.00 in0.0 mm 0.00 in0.0 mm 0.00 in0.0 mm
12:30 AM 44.1°F6.7°C 42.2°F5.7°C 93% Calm Calm 3.0 mph4.8 kmh 30.01 in1016.3 mb 0.00 in0.0 mm 0.00 in0.0 mm 0.00 in0.0 mm
12:35 AM 44.2°F6.8°C 42.3°F5.7°C 93% Calm Calm 7.0 mph11.3 kmh 30.02 in1016.6 mb 0.00 in0.0 mm 0.00 in0.0 mm 0.00 in0.0 mm
12:40 AM 44.2°F6.8°C 42.3°F5.7°C 93% Calm Calm 4.0 mph6.4 kmh 30.02 in1016.6 mb 0.00 in0.0 mm 0.00 in0.0 mm 0.00 in0.0 mm
12:45 AM 44.3°F6.8°C 42.4°F5.8°C 93% Calm Calm 4.0 mph6.4 kmh 30.02 in1016.6 mb 0.00 in0.0 mm 0.00 in0.0 mm 0.00 in0.0 mm
12:50 AM 44.4°F6.9°C 42.5°F5.8°C 93% Calm Calm 5.0 mph8.0 kmh 30.02 in1016.6 mb 0.00 in0.0 mm 0.00 in0.0 mm 0.00 in0.0 mm
12:55 AM 44.4°F6.9°C 42.5°F5.8°C 93% 6.0 mph S9.7 kmh S 6.0 mph9.7 kmh 30.02 in1016.6 mb 0.00 in0.0 mm 0.00 in0.0 mm 0.00 in0.0 mm
01:00 AM 44.5°F6.9°C 42.6°F5.9°C 93% 1.0 mph SE1.6 kmh SE 4.0 mph6.4 kmh 30.02 in1016.6 mb 0.00 in0.0 mm 0.00 in0.0 mm 0.00 in0.0 mm
01:05 AM 44.5°F6.9°C 42.6°F5.9°C 93% 2.0 mph E3.2 kmh E 4.0 mph6.4 kmh 30.02 in1016.6 mb 0.00 in0.0 mm 0.00 in0.0 mm 0.00 in0.0 mm
01:10 AM 44.5°F6.9°C 42.6°F5.9°C 93% 3.0 mph E4.8 kmh E 3.0 mph4.8 kmh 30.02 in1016.6 mb 0.00 in0.0 mm 0.00 in0.0 mm 0.00 in0.0 mm
01:15 AM 44.6°F7.0°C 42.7°F5.9°C 93% 1.0 mph ESE1.6 kmh ESE 4.0 mph6.4 kmh 30.01 in1016.3 mb 0.00 in0.0 mm 0.00 in0.0 mm 0.00 in0.0 mm
01:20 AM 44.6°F7.0°C 42.7°F5.9°C 93% Calm Calm 4.0 mph6.4 kmh 30.00 in1015.9 mb 0.00 in0.0 mm 0.00 in0.0 mm 0.00 in0.0 mm
01:25 AM 44.6°F7.0°C 42.7°F5.9°C 93% Calm Calm 4.0 mph6.4 kmh 30.00 in1015.9 mb 0.00 in0.0 mm 0.00 in0.0 mm 0.00 in0.0 mm
01:29 AM 44.6°F7.0°C 42.7°F5.9°C 93% Calm Calm 6.0 mph9.7 kmh 30.00 in1015.9 mb 0.00 in0.0 mm 0.00 in0.0 mm 0.00 in0.0 mm
01:34 AM 44.6°F7.0°C 42.7°F5.9°C 93% 4.0 mph NE6.4 kmh NE 4.0 mph6.4 kmh 30.00 in1015.9 mb 0.00 in0.0 mm 0.00 in0.0 mm 0.00 in0.0 mm
01:40 AM 44.6°F7.0°C 42.7°F5.9°C 93% 1.0 mph ESE1.6 kmh ESE 4.0 mph6.4 kmh 30.00 in1015.9 mb 0.00 in0.0 mm 0.00 in0.0 mm 0.00 in0.0 mm
01:45 AM 44.6°F7.0°C 42.7°F5.9°C 93% 1.0 mph SE1.6 kmh SE 5.0 mph8.0 kmh 30.00 in1015.9 mb 0.00 in0.0 mm 0.00 in0.0 mm 0.00 in0.0 mm
01:49 AM 44.6°F7.0°C 42.7°F5.9°C 93% 4.0 mph ESE6.4 kmh ESE 7.0 mph11.3 kmh 29.99 in1015.6 mb 0.00 in0.0 mm 0.00 in0.0 mm 0.00 in0.0 mm
01:55 AM 44.6°F7.0°C 42.7°F5.9°C 93% 1.0 mph ESE1.6 kmh ESE 8.0 mph12.9 kmh 29.98 in1015.2 mb 0.00 in0.0 mm 0.00 in0.0 mm 0.00 in0.0 mm
02:00 AM 44.5°F6.9°C 42.6°F5.9°C 93% Calm Calm 8.0 mph12.9 kmh 29.98 in1015.2 mb 0.00 in0.0 mm 0.00 in0.0 mm 0.00 in0.0 mm
02:05 AM 44.5°F6.9°C 42.6°F5.9°C 93% 1.0 mph SE1.6 kmh SE 8.0 mph12.9 kmh 29.98 in1015.2 mb 0.00 in0.0 mm 0.00 in0.0 mm 0.00 in0.0 mm
02:10 AM 44.5°F6.9°C 42.6°F5.9°C 93% 2.0 mph SE3.2 kmh SE 7.0 mph11.3 kmh 29.98 in1015.2 mb 0.00 in0.0 mm 0.00 in0.0 mm 0.00 in0.0 mm
02:15 AM 44.5°F6.9°C 42.6°F5.9°C 93% 1.0 mph E1.6 kmh E 4.0 mph6.4 kmh 29.97 in1014.9 mb 0.00 in0.0 mm 0.00 in0.0 mm 0.00 in0.0 mm
02:20 AM 44.5°F6.9°C 42.6°F5.9°C 93% 4.0 mph ESE6.4 kmh ESE 8.0 mph12.9 kmh 29.97 in1014.9 mb 0.00 in0.0 mm 0.00 in0.0 mm 0.00 in0.0 mm
02:25 AM 44.4°F6.9°C 42.5°F5.8°C 93% 5.0 mph SE8.0 kmh SE 9.0 mph14.5 kmh 29.96 in1014.6 mb 0.00 in0.0 mm 0.00 in0.0 mm 0.00 in0.0 mm
02:30 AM 44.3°F6.8°C 42.4°F5.8°C 93% 2.0 mph ESE3.2 kmh ESE 7.0 mph11.3 kmh 29.96 in1014.6 mb 0.00 in0.0 mm 0.00 in0.0 mm 0.00 in0.0 mm
02:34 AM 44.3°F6.8°C 42.4°F5.8°C 93% 2.0 mph E3.2 kmh E 7.0 mph11.3 kmh 29.96 in1014.6 mb 0.00 in0.0 mm 0.00 in0.0 mm 0.00 in0.0 mm
02:40 AM 44.2°F6.8°C 42.0°F5.6°C 92% 3.0 mph E4.8 kmh E 7.0 mph11.3 kmh 29.96 in1014.6 mb 0.00 in0.0 mm 0.00 in0.0 mm 0.00 in0.0 mm
02:45 AM 44.2°F6.8°C 42.0°F5.6°C 92% Calm Calm 8.0 mph12.9 kmh 29.96 in1014.6 mb 0.00 in0.0 mm 0.00 in0.0 mm 0.00 in0.0 mm
02:50 AM 44.2°F6.8°C 42.3°F5.7°C 93% 3.0 mph ESE4.8 kmh ESE 8.0 mph12.9 kmh 29.95 in1014.2 mb 0.00 in0.0 mm 0.00 in0.0 mm 0.00 in0.0 mm
02:54 AM 44.2°F6.8°C 42.3°F5.7°C 93% 5.0 mph E8.0 kmh E 7.0 mph11.3 kmh 29.94 in1013.9 mb 0.00 in0.0 mm 0.00 in0.0 mm 0.00 in0.0 mm
03:00 AM 44.1°F6.7°C 42.2°F5.7°C 93% 2.0 mph SE3.2 kmh SE 9.0 mph14.5 kmh 29.94 in1013.9 mb 0.00 in0.0 mm 0.00 in0.0 mm 0.00 in0.0 mm
03:05 AM 44.2°F6.8°C 42.3°F5.7°C 93% Calm Calm 4.0 mph6.4 kmh 29.94 in1013.9 mb 0.00 in0.0 mm 0.00 in0.0 mm 0.00 in0.0 mm
03:10 AM 44.1°F6.7°C 42.2°F5.7°C 93% 2.0 mph SE3.2 kmh SE 10.0 mph16.1 kmh 29.93 in1013.5 mb 0.00 in0.0 mm 0.00 in0.0 mm 0.00 in0.0 mm
03:15 AM 44.1°F6.7°C 42.2°F5.7°C 93% 3.0 mph E4.8 kmh E 10.0 mph16.1 kmh 29.93 in1013.5 mb 0.00 in0.0 mm 0.00 in0.0 mm 0.00 in0.0 mm
03:20 AM 44.1°F6.7°C 42.2°F5.7°C 93% 1.0 mph ENE1.6 kmh ENE 10.0 mph16.1 kmh 29.93 in1013.5 mb 0.00 in0.0 mm 0.00 in0.0 mm 0.00 in0.0 mm
03:25 AM 44.1°F6.7°C 42.2°F5.7°C 93% 2.0 mph ESE3.2 kmh ESE 7.0 mph11.3 kmh 29.93 in1013.5 mb 0.00 in0.0 mm 0.00 in0.0 mm 0.00 in0.0 mm
03:30 AM 44.1°F6.7°C 42.2°F5.7°C 93% Calm Calm 4.0 mph6.4 kmh 29.92 in1013.2 mb 0.00 in0.0 mm 0.00 in0.0 mm 0.00 in0.0 mm
03:35 AM 44.1°F6.7°C 42.2°F5.7°C 93% 1.0 mph E1.6 kmh E 10.0 mph16.1 kmh 29.92 in1013.2 mb 0.00 in0.0 mm 0.00 in0.0 mm 0.00 in0.0 mm
03:40 AM 44.1°F6.7°C 42.2°F5.7°C 93% 4.0 mph E6.4 kmh E 5.0 mph8.0 kmh 29.92 in1013.2 mb 0.00 in0.0 mm 0.00 in0.0 mm 0.00 in0.0 mm
03:45 AM 44.1°F6.7°C 42.2°F5.7°C 93% Calm Calm 7.0 mph11.3 kmh 29.91 in1012.9 mb 0.00 in0.0 mm 0.00 in0.0 mm 0.00 in0.0 mm
03:50 AM 44.1°F6.7°C 41.9°F5.5°C 92% 1.0 mph E1.6 kmh E 9.0 mph14.5 kmh 29.91 in1012.9 mb 0.00 in0.0 mm 0.00 in0.0 mm 0.00 in0.0 mm
03:55 AM 44.1°F6.7°C 41.9°F5.5°C 92% 3.0 mph ESE4.8 kmh ESE 10.0 mph16.1 kmh 29.90 in1012.5 mb 0.00 in0.0 mm 0.00 in0.0 mm 0.00 in0.0 mm
04:00 AM 44.1°F6.7°C 41.9°F5.5°C 92% 2.0 mph E3.2 kmh E 7.0 mph11.3 kmh 29.91 in1012.9 mb 0.00 in0.0 mm 0.00 in0.0 mm 0.00 in0.0 mm
04:05 AM 44.2°F6.8°C 42.0°F5.6°C 92% 1.0 mph E1.6 kmh E 10.0 mph16.1 kmh 29.92 in1013.2 mb 0.00 in0.0 mm 0.00 in0.0 mm 0.00 in0.0 mm
04:10 AM 44.2°F6.8°C 42.0°F5.6°C 92% 1.0 mph ESE1.6 kmh ESE 7.0 mph11.3 kmh 29.92 in1013.2 mb 0.00 in0.0 mm 0.00 in0.0 mm 0.00 in0.0 mm
04:15 AM 44.2°F6.8°C 42.0°F5.6°C 92% 7.0 mph E11.3 kmh E 7.0 mph11.3 kmh 29.92 in1013.2 mb 0.00 in0.0 mm 0.00 in0.0 mm 0.00 in0.0 mm
04:19 AM 44.3°F6.8°C 42.1°F5.6°C 92% 5.0 mph ENE8.0 kmh ENE 6.0 mph9.7 kmh 29.90 in1012.5 mb 0.00 in0.0 mm 0.00 in0.0 mm 0.00 in0.0 mm
04:25 AM 44.2°F6.8°C 42.0°F5.6°C 92% 1.0 mph E1.6 kmh E 6.0 mph9.7 kmh 29.90 in1012.5 mb 0.00 in0.0 mm 0.00 in0.0 mm 0.00 in0.0 mm
04:30 AM 44.2°F6.8°C 42.0°F5.6°C 92% Calm Calm 9.0 mph14.5 kmh 29.90 in1012.5 mb 0.00 in0.0 mm 0.00 in0.0 mm 0.00 in0.0 mm
04:34 AM 44.2°F6.8°C 42.0°F5.6°C 92% 2.0 mph E3.2 kmh E 8.0 mph12.9 kmh 29.89 in1012.2 mb 0.00 in0.0 mm 0.00 in0.0 mm 0.00 in0.0 mm
04:40 AM 44.2°F6.8°C 42.0°F5.6°C 92% 3.0 mph SE4.8 kmh SE 9.0 mph14.5 kmh 29.89 in1012.2 mb 0.00 in0.0 mm 0.00 in0.0 mm 0.00 in0.0 mm
04:45 AM 44.2°F6.8°C 42.0°F5.6°C 92% Calm Calm 6.0 mph9.7 kmh 29.90 in1012.5 mb 0.00 in0.0 mm 0.00 in0.0 mm 0.00 in0.0 mm
04:50 AM 44.2°F6.8°C 42.0°F5.6°C 92% 1.0 mph E1.6 kmh E 8.0 mph12.9 kmh 29.89 in1012.2 mb 0.00 in0.0 mm 0.00 in0.0 mm 0.00 in0.0 mm
04:55 AM 44.1°F6.7°C 41.9°F5.5°C 92% 7.0 mph E11.3 kmh E 8.0 mph12.9 kmh 29.89 in1012.2 mb 0.00 in0.0 mm 0.00 in0.0 mm 0.00 in0.0 mm
05:00 AM 44.0°F6.7°C 42.1°F5.6°C 93% 1.0 mph SE1.6 kmh SE 5.0 mph8.0 kmh 29.89 in1012.2 mb 0.00 in0.0 mm 0.00 in0.0 mm 0.00 in0.0 mm
05:04 AM 44.0°F6.7°C 42.1°F5.6°C 93% 3.0 mph NE4.8 kmh NE 5.0 mph8.0 kmh 29.89 in1012.2 mb 0.00 in0.0 mm 0.00 in0.0 mm 0.00 in0.0 mm
05:10 AM 44.0°F6.7°C 42.1°F5.6°C 93% 4.0 mph ENE6.4 kmh ENE 4.0 mph6.4 kmh 29.88 in1011.9 mb 0.00 in0.0 mm 0.00 in0.0 mm 0.00 in0.0 mm
05:15 AM 43.9°F6.6°C 42.0°F5.6°C 93% Calm Calm 10.0 mph16.1 kmh 29.88 in1011.9 mb 0.00 in0.0 mm 0.00 in0.0 mm 0.00 in0.0 mm
05:19 AM 43.9°F6.6°C 42.0°F5.6°C 93% 1.0 mph E1.6 kmh E 5.0 mph8.0 kmh 29.88 in1011.9 mb 0.00 in0.0 mm 0.00 in0.0 mm 0.00 in0.0 mm
05:25 AM 43.9°F6.6°C 42.0°F5.6°C 93% 4.0 mph ESE6.4 kmh ESE 6.0 mph9.7 kmh 29.87 in1011.5 mb 0.00 in0.0 mm 0.00 in0.0 mm 0.00 in0.0 mm
05:30 AM 43.8°F6.6°C 41.9°F5.5°C 93% 2.0 mph E3.2 kmh E 9.0 mph14.5 kmh 29.86 in1011.2 mb 0.00 in0.0 mm 0.00 in0.0 mm 0.00 in0.0 mm
05:35 AM 43.8°F6.6°C 41.9°F5.5°C 93% 1.0 mph ENE1.6 kmh ENE 11.0 mph17.7 kmh 29.86 in1011.2 mb 0.00 in0.0 mm 0.00 in0.0 mm 0.00 in0.0 mm
05:40 AM 43.8°F6.6°C 41.9°F5.5°C 93% 3.0 mph E4.8 kmh E 9.0 mph14.5 kmh 29.86 in1011.2 mb 0.00 in0.0 mm 0.00 in0.0 mm 0.00 in0.0 mm
05:45 AM 43.8°F6.6°C 41.9°F5.5°C 93% 11.0 mph ENE17.7 kmh ENE 12.0 mph19.3 kmh 29.85 in1010.8 mb 0.00 in0.0 mm 0.00 in0.0 mm 0.00 in0.0 mm
05:49 AM 43.7°F6.5°C 41.8°F5.4°C 93% 2.0 mph SE3.2 kmh SE 11.0 mph17.7 kmh 29.85 in1010.8 mb 0.00 in0.0 mm 0.00 in0.0 mm 0.00 in0.0 mm
05:55 AM 43.7°F6.5°C 41.8°F5.4°C 93% 4.0 mph E6.4 kmh E 9.0 mph14.5 kmh 29.84 in1010.5 mb 0.00 in0.0 mm 0.00 in0.0 mm 0.00 in0.0 mm
06:00 AM 43.7°F6.5°C 41.8°F5.4°C 93% 1.0 mph E1.6 kmh E 9.0 mph14.5 kmh 29.84 in1010.5 mb 0.00 in0.0 mm 0.00 in0.0 mm 0.00 in0.0 mm
06:05 AM 43.7°F6.5°C 41.8°F5.4°C 93% 3.0 mph E4.8 kmh E 6.0 mph9.7 kmh 29.84 in1010.5 mb 0.01 in0.3 mm 0.12 in3.0 mm 0.01 in0.3 mm
06:10 AM 43.7°F6.5°C 41.8°F5.4°C 93% 1.0 mph ESE1.6 kmh ESE 6.0 mph9.7 kmh 29.84 in1010.5 mb 0.01 in0.3 mm 0.00 in0.0 mm 0.01 in0.3 mm
06:15 AM 43.7°F6.5°C 41.8°F5.4°C 93% 3.0 mph ESE4.8 kmh ESE 9.0 mph14.5 kmh 29.83 in1010.2 mb 0.02 in0.5 mm 0.12 in3.0 mm 0.02 in0.5 mm
06:19 AM 43.7°F6.5°C 41.8°F5.4°C 93% 3.0 mph ESE4.8 kmh ESE 8.0 mph12.9 kmh 29.83 in1010.2 mb 0.03 in0.8 mm 0.15 in3.8 mm 0.03 in0.8 mm
06:24 AM 43.7°F6.5°C 41.8°F5.4°C 93% 2.0 mph E3.2 kmh E 5.0 mph8.0 kmh 29.83 in1010.2 mb 0.04 in1.0 mm 0.12 in3.0 mm 0.04 in1.0 mm
06:30 AM 43.7°F6.5°C 41.8°F5.4°C 93% Calm Calm 7.0 mph11.3 kmh 29.83 in1010.2 mb 0.05 in1.3 mm 0.10 in2.5 mm 0.05 in1.3 mm
06:35 AM 43.7°F6.5°C 41.8°F5.4°C 93% 2.0 mph ESE3.2 kmh ESE 7.0 mph11.3 kmh 29.82 in1009.8 mb 0.06 in1.5 mm 0.12 in3.0 mm 0.06 in1.5 mm
06:40 AM 43.7°F6.5°C 41.8°F5.4°C 93% Calm Calm 5.0 mph8.0 kmh 29.82 in1009.8 mb 0.07 in1.8 mm 0.12 in3.0 mm 0.07 in1.8 mm
06:45 AM 43.8°F6.6°C 41.9°F5.5°C 93% 2.0 mph SE3.2 kmh SE 6.0 mph9.7 kmh 29.82 in1009.8 mb 0.08 in2.0 mm 0.12 in3.0 mm 0.08 in2.0 mm
06:50 AM 43.8°F6.6°C 41.9°F5.5°C 93% 3.0 mph SE4.8 kmh SE 8.0 mph12.9 kmh 29.81 in1009.5 mb 0.09 in2.3 mm 0.12 in3.0 mm 0.09 in2.3 mm
06:55 AM 43.9°F6.6°C 42.0°F5.6°C 93% Calm Calm 6.0 mph9.7 kmh 29.80 in1009.1 mb 0.11 in2.8 mm 0.24 in6.1 mm 0.11 in2.8 mm
07:00 AM 43.9°F6.6°C 42.0°F5.6°C 93% 2.0 mph SE3.2 kmh SE 10.0 mph16.1 kmh 29.81 in1009.5 mb 0.12 in3.0 mm 0.01 in0.3 mm 0.12 in3.0 mm
07:04 AM 44.0°F6.7°C 42.1°F5.6°C 93% 3.0 mph SE4.8 kmh SE 9.0 mph14.5 kmh 29.81 in1009.5 mb 0.13 in3.3 mm 0.15 in3.8 mm 0.13 in3.3 mm
07:09 AM 44.0°F6.7°C 42.1°F5.6°C 93% Calm Calm 6.0 mph9.7 kmh 29.81 in1009.5 mb 0.14 in3.6 mm 0.12 in3.0 mm 0.14 in3.6 mm
07:14 AM 44.1°F6.7°C 42.2°F5.7°C 93% 1.0 mph E1.6 kmh E 7.0 mph11.3 kmh 29.80 in1009.1 mb 0.15 in3.8 mm 0.12 in3.0 mm 0.15 in3.8 mm
07:20 AM 44.1°F6.7°C 42.2°F5.7°C 93% 4.0 mph E6.4 kmh E 7.0 mph11.3 kmh 29.79 in1008.8 mb 0.15 in3.8 mm 0.00 in0.0 mm 0.15 in3.8 mm
07:25 AM 44.2°F6.8°C 42.3°F5.7°C 93% 4.0 mph SE6.4 kmh SE 7.0 mph11.3 kmh 29.78 in1008.5 mb 0.15 in3.8 mm 0.00 in0.0 mm 0.15 in3.8 mm
07:30 AM 44.2°F6.8°C 42.3°F5.7°C 93% Calm Calm 9.0 mph14.5 kmh 29.78 in1008.5 mb 0.16 in4.1 mm 0.12 in3.0 mm 0.16 in4.1 mm
07:34 AM 44.3°F6.8°C 42.4°F5.8°C 93% 2.0 mph E3.2 kmh E 12.0 mph19.3 kmh 29.77 in1008.1 mb 0.16 in4.1 mm 0.00 in0.0 mm 0.16 in4.1 mm
07:40 AM 44.3°F6.8°C 42.4°F5.8°C 93% 5.0 mph ENE8.0 kmh ENE 7.0 mph11.3 kmh 29.76 in1007.8 mb 0.16 in4.1 mm 0.00 in0.0 mm 0.16 in4.1 mm
07:45 AM 44.3°F6.8°C 42.4°F5.8°C 93% 3.0 mph SE4.8 kmh SE 8.0 mph12.9 kmh 29.77 in1008.1 mb 0.16 in4.1 mm 0.00 in0.0 mm 0.16 in4.1 mm
07:50 AM 44.4°F6.9°C 42.5°F5.8°C 93% 2.0 mph SSE3.2 kmh SSE 7.0 mph11.3 kmh 29.77 in1008.1 mb 0.16 in4.1 mm 0.00 in0.0 mm 0.16 in4.1 mm
07:55 AM 44.5°F6.9°C 42.6°F5.9°C 93% 1.0 mph ESE1.6 kmh ESE 8.0 mph12.9 kmh 29.76 in1007.8 mb 0.15 in3.8 mm 0.00 in0.0 mm 0.16 in4.1 mm
08:00 AM 44.5°F6.9°C 42.6°F5.9°C 93% 5.0 mph SE8.0 kmh SE 9.0 mph14.5 kmh 29.77 in1008.1 mb 0.15 in3.8 mm 0.00 in0.0 mm 0.16 in4.1 mm
08:05 AM 44.7°F7.1°C 42.8°F6.0°C 93% 4.0 mph E6.4 kmh E 8.0 mph12.9 kmh 29.76 in1007.8 mb 0.15 in3.8 mm 0.00 in0.0 mm 0.16 in4.1 mm
08:10 AM 44.7°F7.1°C 42.8°F6.0°C 93% Calm Calm 9.0 mph14.5 kmh 29.77 in1008.1 mb 0.14 in3.6 mm 0.00 in0.0 mm 0.16 in4.1 mm
08:14 AM 44.8°F7.1°C 42.9°F6.1°C 93% 5.0 mph SE8.0 kmh SE 6.0 mph9.7 kmh 29.78 in1008.5 mb 0.14 in3.6 mm 0.00 in0.0 mm 0.16 in4.1 mm
08:19 AM 44.9°F7.2°C 43.0°F6.1°C 93% 4.0 mph E6.4 kmh E 10.0 mph16.1 kmh 29.78 in1008.5 mb 0.14 in3.6 mm 0.00 in0.0 mm 0.16 in4.1 mm
08:25 AM 44.9°F7.2°C 43.0°F6.1°C 93% Calm Calm 6.0 mph9.7 kmh 29.77 in1008.1 mb 0.13 in3.3 mm 0.00 in0.0 mm 0.16 in4.1 mm
08:30 AM 45.0°F7.2°C 43.1°F6.2°C 93% 1.0 mph E1.6 kmh E 6.0 mph9.7 kmh 29.77 in1008.1 mb 0.13 in3.3 mm 0.00 in0.0 mm 0.16 in4.1 mm
08:35 AM 45.0°F7.2°C 43.1°F6.2°C 93% Calm Calm 8.0 mph12.9 kmh 29.77 in1008.1 mb 0.12 in3.0 mm 0.00 in0.0 mm 0.16 in4.1 mm
08:40 AM 45.1°F7.3°C 43.2°F6.2°C 93% 4.0 mph SE6.4 kmh SE 9.0 mph14.5 kmh 29.77 in1008.1 mb 0.12 in3.0 mm 0.00 in0.0 mm 0.16 in4.1 mm
08:45 AM 45.1°F7.3°C 43.2°F6.2°C 93% Calm Calm 6.0 mph9.7 kmh 29.77 in1008.1 mb 0.12 in3.0 mm 0.00 in0.0 mm 0.16 in4.1 mm
08:50 AM 45.1°F7.3°C 43.2°F6.2°C 93% 2.0 mph ESE3.2 kmh ESE 10.0 mph16.1 kmh 29.77 in1008.1 mb 0.11 in2.8 mm 0.00 in0.0 mm 0.16 in4.1 mm
08:55 AM 45.3°F7.4°C 43.4°F6.3°C 93% 3.0 mph ESE4.8 kmh ESE 9.0 mph14.5 kmh 29.77 in1008.1 mb 0.11 in2.8 mm 0.00 in0.0 mm 0.16 in4.1 mm
09:00 AM 45.4°F7.4°C 43.5°F6.4°C 93% Calm Calm 9.0 mph14.5 kmh 29.78 in1008.5 mb 0.10 in2.5 mm 0.00 in0.0 mm 0.16 in4.1 mm
09:05 AM 45.5°F7.5°C 43.6°F6.4°C 93% 2.0 mph ESE3.2 kmh ESE 7.0 mph11.3 kmh 29.78 in1008.5 mb 0.10 in2.5 mm 0.00 in0.0 mm 0.16 in4.1 mm
09:09 AM 45.5°F7.5°C 43.6°F6.4°C 93% 1.0 mph E1.6 kmh E 5.0 mph8.0 kmh 29.77 in1008.1 mb 0.10 in2.5 mm 0.00 in0.0 mm 0.16 in4.1 mm
09:15 AM 45.6°F7.6°C 43.7°F6.5°C 93% Calm Calm 8.0 mph12.9 kmh 29.77 in1008.1 mb 0.10 in2.5 mm 0.00 in0.0 mm 0.16 in4.1 mm
09:20 AM 45.6°F7.6°C 43.7°F6.5°C 93% 1.0 mph SE1.6 kmh SE 7.0 mph11.3 kmh 29.78 in1008.5 mb 0.09 in2.3 mm 0.00 in0.0 mm 0.16 in4.1 mm
09:25 AM 45.7°F7.6°C 43.8°F6.6°C 93% 1.0 mph SE1.6 kmh SE 6.0 mph9.7 kmh 29.78 in1008.5 mb 0.09 in2.3 mm 0.00 in0.0 mm 0.16 in4.1 mm
09:30 AM 45.7°F7.6°C 43.8°F6.6°C 93% 2.0 mph E3.2 kmh E 4.0 mph6.4 kmh 29.77 in1008.1 mb 0.08 in2.0 mm 0.00 in0.0 mm 0.16 in4.1 mm
09:34 AM 45.8°F7.7°C 43.9°F6.6°C 93% 2.0 mph E3.2 kmh E 9.0 mph14.5 kmh 29.77 in1008.1 mb 0.08 in2.0 mm 0.00 in0.0 mm 0.16 in4.1 mm
09:40 AM 45.8°F7.7°C 43.9°F6.6°C 93% 3.0 mph SE4.8 kmh SE 6.0 mph9.7 kmh 29.75 in1007.5 mb 0.08 in2.0 mm 0.00 in0.0 mm 0.16 in4.1 mm
09:45 AM 45.9°F7.7°C 44.0°F6.7°C 93% 2.0 mph ESE3.2 kmh ESE 9.0 mph14.5 kmh 29.75 in1007.5 mb 0.08 in2.0 mm 0.00 in0.0 mm 0.16 in4.1 mm
09:50 AM 45.9°F7.7°C 44.0°F6.7°C 93% Calm Calm 9.0 mph14.5 kmh 29.75 in1007.5 mb 0.08 in2.0 mm 0.00 in0.0 mm 0.16 in4.1 mm
09:55 AM 46.0°F7.8°C 44.1°F6.7°C 93% 3.0 mph SE4.8 kmh SE 9.0 mph14.5 kmh 29.74 in1007.1 mb 0.08 in2.0 mm 0.00 in0.0 mm 0.16 in4.1 mm
10:00 AM 46.1°F7.8°C 44.2°F6.8°C 93% 3.0 mph ESE4.8 kmh ESE 8.0 mph12.9 kmh 29.74 in1007.1 mb 0.08 in2.0 mm 0.00 in0.0 mm 0.16 in4.1 mm
10:05 AM 46.2°F7.9°C 44.3°F6.8°C 93% 2.0 mph ESE3.2 kmh ESE 7.0 mph11.3 kmh 29.73 in1006.8 mb 0.07 in1.8 mm 0.00 in0.0 mm 0.16 in4.1 mm
10:10 AM 46.4°F8.0°C 44.5°F6.9°C 93% 5.0 mph E8.0 kmh E 9.0 mph14.5 kmh 29.71 in1006.1 mb 0.07 in1.8 mm 0.00 in0.0 mm 0.16 in4.1 mm
10:15 AM 46.7°F8.2°C 44.8°F7.1°C 93% 4.0 mph ESE6.4 kmh ESE 12.0 mph19.3 kmh 29.72 in1006.4 mb 0.07 in1.8 mm 0.00 in0.0 mm 0.16 in4.1 mm
10:20 AM 46.9°F8.3°C 45.0°F7.2°C 93% 1.0 mph ESE1.6 kmh ESE 5.0 mph8.0 kmh 29.72 in1006.4 mb 0.06 in1.5 mm 0.00 in0.0 mm 0.16 in4.1 mm
10:25 AM 47.1°F8.4°C 45.2°F7.3°C 93% 2.0 mph SSW3.2 kmh SSW 9.0 mph14.5 kmh 29.72 in1006.4 mb 0.07 in1.8 mm 0.12 in3.0 mm 0.17 in4.3 mm
10:30 AM 47.2°F8.4°C 45.3°F7.4°C 93% Calm Calm 7.0 mph11.3 kmh 29.73 in1006.8 mb 0.06 in1.5 mm 0.00 in0.0 mm 0.17 in4.3 mm
10:35 AM 47.4°F8.6°C 45.5°F7.5°C 93% 4.0 mph SSE6.4 kmh SSE 8.0 mph12.9 kmh 29.74 in1007.1 mb 0.05 in1.3 mm 0.00 in0.0 mm 0.17 in4.3 mm
10:40 AM 47.4°F8.6°C 45.5°F7.5°C 93% 9.0 mph S14.5 kmh S 9.0 mph14.5 kmh 29.75 in1007.5 mb 0.06 in1.5 mm 0.12 in3.0 mm 0.18 in4.6 mm
10:45 AM 47.6°F8.7°C 45.7°F7.6°C 93% 3.0 mph SSE4.8 kmh SSE 9.0 mph14.5 kmh 29.75 in1007.5 mb 0.05 in1.3 mm 0.00 in0.0 mm 0.18 in4.6 mm
10:50 AM 47.6°F8.7°C 45.7°F7.6°C 93% 1.0 mph SE1.6 kmh SE 8.0 mph12.9 kmh 29.75 in1007.5 mb 0.05 in1.3 mm 0.00 in0.0 mm 0.18 in4.6 mm
10:54 AM 47.8°F8.8°C 45.9°F7.7°C 93% Calm Calm 6.0 mph9.7 kmh 29.74 in1007.1 mb 0.05 in1.3 mm 0.00 in0.0 mm 0.18 in4.6 mm
11:00 AM 48.1°F8.9°C 46.2°F7.9°C 93% 1.0 mph S1.6 kmh S 7.0 mph11.3 kmh 29.73 in1006.8 mb 0.05 in1.3 mm 0.00 in0.0 mm 0.18 in4.6 mm
11:05 AM 48.3°F9.1°C 46.4°F8.0°C 93% 3.0 mph E4.8 kmh E 10.0 mph16.1 kmh 29.73 in1006.8 mb 0.04 in1.0 mm 0.00 in0.0 mm 0.18 in4.6 mm
11:10 AM 48.3°F9.1°C 46.4°F8.0°C 93% 2.0 mph SE3.2 kmh SE 8.0 mph12.9 kmh 29.72 in1006.4 mb 0.05 in1.3 mm 0.12 in3.0 mm 0.19 in4.8 mm
11:15 AM 48.4°F9.1°C 46.5°F8.1°C 93% 5.0 mph SSE8.0 kmh SSE 7.0 mph11.3 kmh 29.72 in1006.4 mb 0.04 in1.0 mm 0.00 in0.0 mm 0.19 in4.8 mm
11:20 AM 48.4°F9.1°C 46.5°F8.1°C 93% 3.0 mph ESE4.8 kmh ESE 9.0 mph14.5 kmh 29.72 in1006.4 mb 0.04 in1.0 mm 0.00 in0.0 mm 0.19 in4.8 mm
11:24 AM 48.4°F9.1°C 46.5°F8.1°C 93% 3.0 mph E4.8 kmh E 8.0 mph12.9 kmh 29.71 in1006.1 mb 0.05 in1.3 mm 0.15 in3.8 mm 0.20 in5.1 mm
11:29 AM 48.5°F9.2°C 46.6°F8.1°C 93% 4.0 mph SE6.4 kmh SE 10.0 mph16.1 kmh 29.71 in1006.1 mb 0.04 in1.0 mm 0.00 in0.0 mm 0.20 in5.1 mm
11:35 AM 48.7°F9.3°C 46.8°F8.2°C 93% 2.0 mph SSW3.2 kmh SSW 9.0 mph14.5 kmh 29.71 in1006.1 mb 0.04 in1.0 mm 0.00 in0.0 mm 0.20 in5.1 mm
11:40 AM 48.8°F9.3°C 46.9°F8.3°C 93% 2.0 mph SE3.2 kmh SE 7.0 mph11.3 kmh 29.71 in1006.1 mb 0.04 in1.0 mm 0.00 in0.0 mm 0.20 in5.1 mm
11:45 AM 49.0°F9.4°C 47.1°F8.4°C 93% 1.0 mph SE1.6 kmh SE 8.0 mph12.9 kmh 29.71 in1006.1 mb 0.04 in1.0 mm 0.00 in0.0 mm 0.20 in5.1 mm
11:50 AM 49.1°F9.5°C 47.2°F8.4°C 93% 6.0 mph SSE9.7 kmh SSE 8.0 mph12.9 kmh 29.70 in1005.8 mb 0.04 in1.0 mm 0.00 in0.0 mm 0.20 in5.1 mm
11:55 AM 49.1°F9.5°C 47.2°F8.4°C 93% 3.0 mph E4.8 kmh E 9.0 mph14.5 kmh 29.69 in1005.4 mb 0.04 in1.0 mm 0.00 in0.0 mm 0.20 in5.1 mm
12:00 PM 49.1°F9.5°C 47.2°F8.4°C 93% 2.0 mph ESE3.2 kmh ESE 8.0 mph12.9 kmh 29.67 in1004.7 mb 0.03 in0.8 mm 0.00 in0.0 mm 0.20 in5.1 mm
12:05 PM 49.0°F9.4°C 47.1°F8.4°C 93% 3.0 mph ESE4.8 kmh ESE 8.0 mph12.9 kmh 29.67 in1004.7 mb 0.03 in0.8 mm 0.00 in0.0 mm 0.20 in5.1 mm
12:10 PM 49.1°F9.5°C 47.2°F8.4°C 93% 2.0 mph SE3.2 kmh SE 10.0 mph16.1 kmh 29.66 in1004.4 mb 0.04 in1.0 mm 0.12 in3.0 mm 0.21 in5.3 mm
12:15 PM 49.1°F9.5°C 47.2°F8.4°C 93% 7.0 mph SE11.3 kmh SE 8.0 mph12.9 kmh 29.65 in1004.1 mb 0.03 in0.8 mm 0.00 in0.0 mm 0.21 in5.3 mm
12:20 PM 49.2°F9.6°C 47.3°F8.5°C 93% 2.0 mph SSE3.2 kmh SSE 9.0 mph14.5 kmh 29.66 in1004.4 mb 0.03 in0.8 mm 0.00 in0.0 mm 0.21 in5.3 mm
12:25 PM 49.3°F9.6°C 47.4°F8.6°C 93% 1.0 mph SE1.6 kmh SE 11.0 mph17.7 kmh 29.66 in1004.4 mb 0.03 in0.8 mm 0.00 in0.0 mm 0.21 in5.3 mm
12:30 PM 49.5°F9.7°C 47.6°F8.7°C 93% 3.0 mph SSE4.8 kmh SSE 8.0 mph12.9 kmh 29.66 in1004.4 mb 0.02 in0.5 mm 0.00 in0.0 mm 0.21 in5.3 mm
12:35 PM 49.7°F9.8°C 47.8°F8.8°C 93% 2.0 mph SSE3.2 kmh SSE 8.0 mph12.9 kmh 29.67 in1004.7 mb 0.03 in0.8 mm 0.12 in3.0 mm 0.22 in5.6 mm
12:40 PM 49.9°F9.9°C 48.0°F8.9°C 93% 2.0 mph SSE3.2 kmh SSE 9.0 mph14.5 kmh 29.67 in1004.7 mb 0.03 in0.8 mm 0.00 in0.0 mm 0.22 in5.6 mm
12:45 PM 50.0°F10.0°C 48.1°F8.9°C 93% Calm Calm 9.0 mph14.5 kmh 29.66 in1004.4 mb 0.03 in0.8 mm 0.00 in0.0 mm 0.22 in5.6 mm
12:50 PM 50.1°F10.1°C 48.2°F9.0°C 93% 7.0 mph SE11.3 kmh SE 10.0 mph16.1 kmh 29.66 in1004.4 mb 0.02 in0.5 mm 0.00 in0.0 mm 0.22 in5.6 mm
12:55 PM 50.2°F10.1°C 48.3°F9.1°C 93% 6.0 mph S9.7 kmh S 9.0 mph14.5 kmh 29.65 in1004.1 mb 0.02 in0.5 mm 0.00 in0.0 mm 0.22 in5.6 mm
01:00 PM 50.3°F10.2°C 48.4°F9.1°C 93% 10.0 mph S16.1 kmh S 11.0 mph17.7 kmh 29.65 in1004.1 mb 0.02 in0.5 mm 0.00 in0.0 mm 0.22 in5.6 mm
01:05 PM 50.5°F10.3°C 48.6°F9.2°C 93% 6.0 mph S9.7 kmh S 15.0 mph24.1 kmh 29.64 in1003.7 mb 0.03 in0.8 mm 0.12 in3.0 mm 0.23 in5.8 mm
01:10 PM 50.6°F10.3°C 48.7°F9.3°C 93% 3.0 mph SE4.8 kmh SE 7.0 mph11.3 kmh 29.64 in1003.7 mb 0.03 in0.8 mm 0.00 in0.0 mm 0.23 in5.8 mm
01:15 PM 50.7°F10.4°C 48.8°F9.3°C 93% 3.0 mph SSE4.8 kmh SSE 12.0 mph19.3 kmh 29.63 in1003.4 mb 0.02 in0.5 mm 0.00 in0.0 mm 0.23 in5.8 mm
01:20 PM 50.8°F10.4°C 48.9°F9.4°C 93% 7.0 mph S11.3 kmh S 11.0 mph17.7 kmh 29.62 in1003.0 mb 0.02 in0.5 mm 0.00 in0.0 mm 0.23 in5.8 mm
01:25 PM 51.1°F10.6°C 49.2°F9.6°C 93% 3.0 mph S4.8 kmh S 9.0 mph14.5 kmh 29.64 in1003.7 mb 0.02 in0.5 mm 0.00 in0.0 mm 0.23 in5.8 mm
01:30 PM 51.4°F10.8°C 49.5°F9.7°C 93% 6.0 mph S9.7 kmh S 11.0 mph17.7 kmh 29.63 in1003.4 mb 0.02 in0.5 mm 0.00 in0.0 mm 0.23 in5.8 mm
01:35 PM 51.7°F10.9°C 49.8°F9.9°C 93% 6.0 mph SSE9.7 kmh SSE 7.0 mph11.3 kmh 29.64 in1003.7 mb 0.02 in0.5 mm 0.00 in0.0 mm 0.23 in5.8 mm
01:40 PM 52.0°F11.1°C 50.0°F10.0°C 93% 6.0 mph SSE9.7 kmh SSE 11.0 mph17.7 kmh 29.63 in1003.4 mb 0.02 in0.5 mm 0.00 in0.0 mm 0.23 in5.8 mm
01:45 PM 52.3°F11.3°C 50.3°F10.2°C 93% 5.0 mph SE8.0 kmh SE 11.0 mph17.7 kmh 29.61 in1002.7 mb 0.02 in0.5 mm 0.00 in0.0 mm 0.23 in5.8 mm
01:50 PM 52.6°F11.4°C 50.6°F10.3°C 93% 8.0 mph SSE12.9 kmh SSE 14.0 mph22.5 kmh 29.62 in1003.0 mb 0.02 in0.5 mm 0.00 in0.0 mm 0.23 in5.8 mm
01:54 PM 52.9°F11.6°C 50.9°F10.5°C 93% 9.0 mph SSE14.5 kmh SSE 12.0 mph19.3 kmh 29.60 in1002.4 mb 0.02 in0.5 mm 0.00 in0.0 mm 0.23 in5.8 mm
01:59 PM 53.2°F11.8°C 51.2°F10.7°C 93% 6.0 mph S9.7 kmh S 12.0 mph19.3 kmh 29.57 in1001.4 mb 0.02 in0.5 mm 0.00 in0.0 mm 0.23 in5.8 mm
02:05 PM 53.4°F11.9°C 51.4°F10.8°C 93% 6.0 mph E9.7 kmh E 16.0 mph25.7 kmh 29.50 in999.0 mb 0.02 in0.5 mm 0.00 in0.0 mm 0.23 in5.8 mm
02:10 PM 53.5°F11.9°C 51.5°F10.8°C 93% 1.0 mph SE1.6 kmh SE 12.0 mph19.3 kmh 29.51 in999.3 mb 0.01 in0.3 mm 0.00 in0.0 mm 0.23 in5.8 mm
02:14 PM 53.7°F12.1°C 51.7°F10.9°C 93% 8.0 mph SE12.9 kmh SE 12.0 mph19.3 kmh 29.52 in999.7 mb 0.01 in0.3 mm 0.00 in0.0 mm 0.23 in5.8 mm
02:20 PM 53.9°F12.2°C 51.9°F11.1°C 93% 1.0 mph SSE1.6 kmh SSE 11.0 mph17.7 kmh 29.52 in999.7 mb 0.02 in0.5 mm 0.10 in2.5 mm 0.24 in6.1 mm
02:24 PM 54.1°F12.3°C 52.1°F11.2°C 93% 4.0 mph SSE6.4 kmh SSE 15.0 mph24.1 kmh 29.52 in999.7 mb 0.02 in0.5 mm 0.00 in0.0 mm 0.24 in6.1 mm
02:30 PM 54.3°F12.4°C 52.3°F11.3°C 93% 2.0 mph E3.2 kmh E 14.0 mph22.5 kmh 29.52 in999.7 mb 0.02 in0.5 mm 0.00 in0.0 mm 0.24 in6.1 mm
02:35 PM 54.5°F12.5°C 52.5°F11.4°C 93% 10.0 mph SSE16.1 kmh SSE 17.0 mph27.4 kmh 29.52 in999.7 mb 0.02 in0.5 mm 0.00 in0.0 mm 0.24 in6.1 mm
02:40 PM 54.6°F12.6°C 52.6°F11.4°C 93% 8.0 mph SE12.9 kmh SE 16.0 mph25.7 kmh 29.52 in999.7 mb 0.02 in0.5 mm 0.00 in0.0 mm 0.24 in6.1 mm
02:45 PM 54.7°F12.6°C 52.7°F11.5°C 93% 4.0 mph SSE6.4 kmh SSE 14.0 mph22.5 kmh 29.51 in999.3 mb 0.01 in0.3 mm 0.00 in0.0 mm 0.24 in6.1 mm
02:49 PM 54.8°F12.7°C 52.8°F11.6°C 93% 5.0 mph S8.0 kmh S 11.0 mph17.7 kmh 29.52 in999.7 mb 0.01 in0.3 mm 0.00 in0.0 mm 0.24 in6.1 mm
02:55 PM 54.8°F12.7°C 52.8°F11.6°C 93% 3.0 mph S4.8 kmh S 10.0 mph16.1 kmh 29.52 in999.7 mb 0.01 in0.3 mm 0.00 in0.0 mm 0.24 in6.1 mm
03:00 PM 54.9°F12.7°C 52.9°F11.6°C 93% 3.0 mph SSW4.8 kmh SSW 10.0 mph16.1 kmh 29.53 in1000.0 mb 0.01 in0.3 mm 0.00 in0.0 mm 0.24 in6.1 mm
03:05 PM 55.0°F12.8°C 53.0°F11.7°C 93% 7.0 mph SW11.3 kmh SW 10.0 mph16.1 kmh 29.55 in1000.7 mb 0.01 in0.3 mm 0.00 in0.0 mm 0.24 in6.1 mm
03:10 PM 55.1°F12.8°C 53.1°F11.7°C 93% 5.0 mph S8.0 kmh S 12.0 mph19.3 kmh 29.55 in1000.7 mb 0.01 in0.3 mm 0.00 in0.0 mm 0.24 in6.1 mm
03:15 PM 55.2°F12.9°C 52.9°F11.6°C 92% 6.0 mph SW9.7 kmh SW 13.0 mph20.9 kmh 29.56 in1001.0 mb 0.02 in0.5 mm 0.12 in3.0 mm 0.25 in6.4 mm
03:20 PM 55.3°F12.9°C 53.0°F11.7°C 92% 11.0 mph SW17.7 kmh SW 11.0 mph17.7 kmh 29.59 in1002.0 mb 0.02 in0.5 mm 0.00 in0.0 mm 0.25 in6.4 mm
03:24 PM 55.4°F13.0°C 53.1°F11.7°C 92% 3.0 mph SSW4.8 kmh SSW 14.0 mph22.5 kmh 29.60 in1002.4 mb 0.01 in0.3 mm 0.00 in0.0 mm 0.25 in6.4 mm
03:30 PM 55.4°F13.0°C 53.1°F11.7°C 92% 7.0 mph SSW11.3 kmh SSW 10.0 mph16.1 kmh 29.59 in1002.0 mb 0.01 in0.3 mm 0.00 in0.0 mm 0.25 in6.4 mm
03:35 PM 55.4°F13.0°C 53.1°F11.7°C 92% 2.0 mph S3.2 kmh S 8.0 mph12.9 kmh 29.59 in1002.0 mb 0.01 in0.3 mm 0.00 in0.0 mm 0.25 in6.4 mm
03:40 PM 55.3°F12.9°C 53.0°F11.7°C 92% 3.0 mph SE4.8 kmh SE 8.0 mph12.9 kmh 29.55 in1000.7 mb 0.01 in0.3 mm 0.00 in0.0 mm 0.25 in6.4 mm
03:45 PM 55.1°F12.8°C 52.8°F11.6°C 92% 3.0 mph S4.8 kmh S 11.0 mph17.7 kmh 29.53 in1000.0 mb 0.01 in0.3 mm 0.00 in0.0 mm 0.25 in6.4 mm
03:50 PM 55.1°F12.8°C 52.8°F11.6°C 92% 8.0 mph SSE12.9 kmh SSE 13.0 mph20.9 kmh 29.57 in1001.4 mb 0.01 in0.3 mm 0.00 in0.0 mm 0.25 in6.4 mm
03:55 PM 55.1°F12.8°C 52.8°F11.6°C 92% 3.0 mph S4.8 kmh S 8.0 mph12.9 kmh 29.58 in1001.7 mb 0.01 in0.3 mm 0.00 in0.0 mm 0.25 in6.4 mm
04:00 PM 55.1°F12.8°C 53.1°F11.7°C 93% 16.0 mph S25.7 kmh S 16.0 mph25.7 kmh 29.56 in1001.0 mb 0.01 in0.3 mm 0.00 in0.0 mm 0.25 in6.4 mm
04:05 PM 55.1°F12.8°C 53.1°F11.7°C 93% 6.0 mph S9.7 kmh S 12.0 mph19.3 kmh 29.54 in1000.3 mb 0.01 in0.3 mm 0.00 in0.0 mm 0.25 in6.4 mm
04:10 PM 55.0°F12.8°C 52.7°F11.5°C 92% 7.0 mph SSW11.3 kmh SSW 9.0 mph14.5 kmh 29.50 in999.0 mb 0.01 in0.3 mm 0.00 in0.0 mm 0.25 in6.4 mm
04:15 PM 55.3°F12.9°C 53.3°F11.8°C 93% 11.0 mph E17.7 kmh E 11.0 mph17.7 kmh 29.44 in997.0 mb 0.00 in0.0 mm 0.00 in0.0 mm 0.25 in6.4 mm
04:20 PM 55.6°F13.1°C 53.6°F12.0°C 93% 5.0 mph SE8.0 kmh SE 14.0 mph22.5 kmh 29.44 in997.0 mb 0.01 in0.3 mm 0.12 in3.0 mm 0.26 in6.6 mm
04:25 PM 55.8°F13.2°C 53.8°F12.1°C 93% Calm Calm 14.0 mph22.5 kmh 29.46 in997.6 mb 0.01 in0.3 mm 0.00 in0.0 mm 0.26 in6.6 mm
04:29 PM 55.8°F13.2°C 53.8°F12.1°C 93% 5.0 mph SE8.0 kmh SE 14.0 mph22.5 kmh 29.45 in997.3 mb 0.01 in0.3 mm 0.00 in0.0 mm 0.26 in6.6 mm
04:35 PM 55.8°F13.2°C 53.8°F12.1°C 93% 10.0 mph SSE16.1 kmh SSE 13.0 mph20.9 kmh 29.45 in997.3 mb 0.01 in0.3 mm 0.00 in0.0 mm 0.26 in6.6 mm
04:40 PM 55.9°F13.3°C 53.9°F12.2°C 93% 7.0 mph SSE11.3 kmh SSE 13.0 mph20.9 kmh 29.47 in998.0 mb 0.01 in0.3 mm 0.00 in0.0 mm 0.26 in6.6 mm
04:45 PM 55.8°F13.2°C 53.8°F12.1°C 93% 4.0 mph ESE6.4 kmh ESE 19.0 mph30.6 kmh 29.48 in998.3 mb 0.01 in0.3 mm 0.00 in0.0 mm 0.26 in6.6 mm
04:49 PM 55.6°F13.1°C 53.3°F11.8°C 92% 12.0 mph SW19.3 kmh SW 23.0 mph37.0 kmh 29.49 in998.6 mb 0.01 in0.3 mm 0.00 in0.0 mm 0.26 in6.6 mm
04:54 PM 55.6°F13.1°C 53.3°F11.8°C 92% 12.0 mph S19.3 kmh S 14.0 mph22.5 kmh 29.49 in998.6 mb 0.01 in0.3 mm 0.00 in0.0 mm 0.26 in6.6 mm
05:00 PM 55.6°F13.1°C 53.3°F11.8°C 92% 9.0 mph SSE14.5 kmh SSE 14.0 mph22.5 kmh 29.50 in999.0 mb 0.01 in0.3 mm 0.00 in0.0 mm 0.26 in6.6 mm
05:05 PM 55.6°F13.1°C 53.3°F11.8°C 92% 11.0 mph SSE17.7 kmh SSE 13.0 mph20.9 kmh 29.50 in999.0 mb 0.01 in0.3 mm 0.00 in0.0 mm 0.26 in6.6 mm
05:10 PM 55.6°F13.1°C 53.3°F11.8°C 92% 7.0 mph S11.3 kmh S 20.0 mph32.2 kmh 29.50 in999.0 mb 0.01 in0.3 mm 0.00 in0.0 mm 0.26 in6.6 mm
05:15 PM 55.7°F13.2°C 53.4°F11.9°C 92% 9.0 mph SSE14.5 kmh SSE 13.0 mph20.9 kmh 29.49 in998.6 mb 0.01 in0.3 mm 0.00 in0.0 mm 0.26 in6.6 mm
05:20 PM 55.7°F13.2°C 53.4°F11.9°C 92% 6.0 mph SSW9.7 kmh SSW 12.0 mph19.3 kmh 29.50 in999.0 mb 0.01 in0.3 mm 0.00 in0.0 mm 0.26 in6.6 mm
05:25 PM 55.8°F13.2°C 53.5°F11.9°C 92% 6.0 mph SE9.7 kmh SE 10.0 mph16.1 kmh 29.50 in999.0 mb 0.00 in0.0 mm 0.00 in0.0 mm 0.26 in6.6 mm
05:30 PM 55.9°F13.3°C 53.6°F12.0°C 92% 8.0 mph SSE12.9 kmh SSE 13.0 mph20.9 kmh 29.49 in998.6 mb 0.00 in0.0 mm 0.00 in0.0 mm 0.26 in6.6 mm
05:35 PM 56.0°F13.3°C 53.7°F12.1°C 92% 9.0 mph SSE14.5 kmh SSE 14.0 mph22.5 kmh 29.49 in998.6 mb 0.00 in0.0 mm 0.00 in0.0 mm 0.26 in6.6 mm
05:40 PM 56.0°F13.3°C 53.7°F12.1°C 92% 8.0 mph S12.9 kmh S 13.0 mph20.9 kmh 29.50 in999.0 mb 0.00 in0.0 mm 0.00 in0.0 mm 0.26 in6.6 mm
05:45 PM 56.1°F13.4°C 53.8°F12.1°C 92% 4.0 mph S6.4 kmh S 10.0 mph16.1 kmh 29.50 in999.0 mb 0.00 in0.0 mm 0.00 in0.0 mm 0.26 in6.6 mm
05:50 PM 56.1°F13.4°C 53.5°F11.9°C 91% 5.0 mph S8.0 kmh S 11.0 mph17.7 kmh 29.49 in998.6 mb 0.00 in0.0 mm 0.00 in0.0 mm 0.26 in6.6 mm
05:54 PM 56.2°F13.4°C 53.6°F12.0°C 91% 7.0 mph S11.3 kmh S 15.0 mph24.1 kmh 29.49 in998.6 mb 0.00 in0.0 mm 0.00 in0.0 mm 0.26 in6.6 mm
06:00 PM 56.2°F13.4°C 53.6°F12.0°C 91% 7.0 mph SSE11.3 kmh SSE 13.0 mph20.9 kmh 29.49 in998.6 mb 0.00 in0.0 mm 0.00 in0.0 mm 0.26 in6.6 mm
06:05 PM 56.2°F13.4°C 53.6°F12.0°C 91% 2.0 mph ESE3.2 kmh ESE 13.0 mph20.9 kmh 29.49 in998.6 mb 0.00 in0.0 mm 0.00 in0.0 mm 0.26 in6.6 mm
06:10 PM 56.2°F13.4°C 53.6°F12.0°C 91% 4.0 mph SSE6.4 kmh SSE 10.0 mph16.1 kmh 29.49 in998.6 mb 0.01 in0.3 mm 0.12 in3.0 mm 0.27 in6.9 mm
06:14 PM 56.2°F13.4°C 53.6°F12.0°C 91% 6.0 mph S9.7 kmh S 11.0 mph17.7 kmh 29.49 in998.6 mb 0.01 in0.3 mm 0.00 in0.0 mm 0.27 in6.9 mm
06:20 PM 56.1°F13.4°C 53.5°F11.9°C 91% 2.0 mph SE3.2 kmh SE 9.0 mph14.5 kmh 29.49 in998.6 mb 0.01 in0.3 mm 0.00 in0.0 mm 0.27 in6.9 mm
06:25 PM 56.0°F13.3°C 53.4°F11.9°C 91% 5.0 mph SE8.0 kmh SE 9.0 mph14.5 kmh 29.49 in998.6 mb 0.01 in0.3 mm 0.00 in0.0 mm 0.27 in6.9 mm
06:30 PM 56.0°F13.3°C 53.4°F11.9°C 91% 7.0 mph SSE11.3 kmh SSE 14.0 mph22.5 kmh 29.49 in998.6 mb 0.01 in0.3 mm 0.00 in0.0 mm 0.27 in6.9 mm
06:35 PM 56.0°F13.3°C 53.4°F11.9°C 91% 6.0 mph ESE9.7 kmh ESE 8.0 mph12.9 kmh 29.48 in998.3 mb 0.01 in0.3 mm 0.00 in0.0 mm 0.27 in6.9 mm
06:40 PM 56.0°F13.3°C 53.4°F11.9°C 91% 6.0 mph SSE9.7 kmh SSE 7.0 mph11.3 kmh 29.48 in998.3 mb 0.01 in0.3 mm 0.00 in0.0 mm 0.27 in6.9 mm
06:45 PM 56.0°F13.3°C 53.4°F11.9°C 91% 5.0 mph SSE8.0 kmh SSE 7.0 mph11.3 kmh 29.48 in998.3 mb 0.01 in0.3 mm 0.00 in0.0 mm 0.27 in6.9 mm
06:50 PM 56.0°F13.3°C 53.4°F11.9°C 91% 6.0 mph SSE9.7 kmh SSE 7.0 mph11.3 kmh 29.49 in998.6 mb 0.01 in0.3 mm 0.00 in0.0 mm 0.27 in6.9 mm
06:54 PM 56.0°F13.3°C 53.4°F11.9°C 91% 5.0 mph S8.0 kmh S 7.0 mph11.3 kmh 29.49 in998.6 mb 0.01 in0.3 mm 0.00 in0.0 mm 0.27 in6.9 mm
07:00 PM 56.0°F13.3°C 53.4°F11.9°C 91% 5.0 mph SSE8.0 kmh SSE 10.0 mph16.1 kmh 29.49 in998.6 mb 0.01 in0.3 mm 0.00 in0.0 mm 0.27 in6.9 mm
07:04 PM 55.9°F13.3°C 53.3°F11.8°C 91% 2.0 mph SE3.2 kmh SE 8.0 mph12.9 kmh 29.48 in998.3 mb 0.01 in0.3 mm 0.00 in0.0 mm 0.27 in6.9 mm
07:09 PM 55.9°F13.3°C 53.3°F11.8°C 91% 1.0 mph SE1.6 kmh SE 9.0 mph14.5 kmh 29.48 in998.3 mb 0.01 in0.3 mm 0.00 in0.0 mm 0.27 in6.9 mm
07:15 PM 55.8°F13.2°C 53.2°F11.8°C 91% 2.0 mph SE3.2 kmh SE 9.0 mph14.5 kmh 29.48 in998.3 mb 0.00 in0.0 mm 0.00 in0.0 mm 0.27 in6.9 mm
07:20 PM 55.8°F13.2°C 53.2°F11.8°C 91% 4.0 mph SE6.4 kmh SE 11.0 mph17.7 kmh 29.48 in998.3 mb 0.00 in0.0 mm 0.00 in0.0 mm 0.27 in6.9 mm
07:25 PM 55.7°F13.2°C 53.1°F11.7°C 91% 4.0 mph SE6.4 kmh SE 7.0 mph11.3 kmh 29.48 in998.3 mb 0.00 in0.0 mm 0.00 in0.0 mm 0.27 in6.9 mm
07:30 PM 55.7°F13.2°C 53.1°F11.7°C 91% 2.0 mph SE3.2 kmh SE 8.0 mph12.9 kmh 29.48 in998.3 mb 0.00 in0.0 mm 0.00 in0.0 mm 0.27 in6.9 mm
07:35 PM 55.6°F13.1°C 53.3°F11.8°C 92% 4.0 mph SE6.4 kmh SE 4.0 mph6.4 kmh 29.48 in998.3 mb 0.00 in0.0 mm 0.00 in0.0 mm 0.27 in6.9 mm
07:40 PM 55.5°F13.1°C 53.2°F11.8°C 92% 3.0 mph SE4.8 kmh SE 6.0 mph9.7 kmh 29.48 in998.3 mb 0.00 in0.0 mm 0.00 in0.0 mm 0.27 in6.9 mm
07:45 PM 55.4°F13.0°C 53.1°F11.7°C 92% 1.0 mph SE1.6 kmh SE 3.0 mph4.8 kmh 29.47 in998.0 mb 0.00 in0.0 mm 0.00 in0.0 mm 0.27 in6.9 mm
07:50 PM 55.4°F13.0°C 53.1°F11.7°C 92% 1.0 mph SSE1.6 kmh SSE 5.0 mph8.0 kmh 29.47 in998.0 mb 0.00 in0.0 mm 0.00 in0.0 mm 0.27 in6.9 mm
07:55 PM 55.4°F13.0°C 53.1°F11.7°C 92% 2.0 mph SE3.2 kmh SE 6.0 mph9.7 kmh 29.47 in998.0 mb 0.00 in0.0 mm 0.00 in0.0 mm 0.27 in6.9 mm
08:00 PM 55.3°F12.9°C 53.0°F11.7°C 92% 5.0 mph SE8.0 kmh SE 11.0 mph17.7 kmh 29.47 in998.0 mb 0.00 in0.0 mm 0.00 in0.0 mm 0.27 in6.9 mm
08:05 PM 55.3°F12.9°C 53.0°F11.7°C 92% 2.0 mph SSE3.2 kmh SSE 7.0 mph11.3 kmh 29.46 in997.6 mb 0.00 in0.0 mm 0.00 in0.0 mm 0.27 in6.9 mm
08:10 PM 55.4°F13.0°C 53.1°F11.7°C 92% 3.0 mph SE4.8 kmh SE 7.0 mph11.3 kmh 29.46 in997.6 mb 0.00 in0.0 mm 0.00 in0.0 mm 0.27 in6.9 mm
08:14 PM 55.4°F13.0°C 53.1°F11.7°C 92% 6.0 mph S9.7 kmh S 8.0 mph12.9 kmh 29.46 in997.6 mb 0.00 in0.0 mm 0.00 in0.0 mm 0.27 in6.9 mm
08:19 PM 55.4°F13.0°C 53.4°F11.9°C 93% 2.0 mph SSE3.2 kmh SSE 10.0 mph16.1 kmh 29.47 in998.0 mb 0.00 in0.0 mm 0.00 in0.0 mm 0.27 in6.9 mm
08:25 PM 55.5°F13.1°C 53.5°F11.9°C 93% 2.0 mph SE3.2 kmh SE 8.0 mph12.9 kmh 29.46 in997.6 mb 0.00 in0.0 mm 0.00 in0.0 mm 0.27 in6.9 mm
08:29 PM 55.5°F13.1°C 53.5°F11.9°C 93% 6.0 mph S9.7 kmh S 10.0 mph16.1 kmh 29.46 in997.6 mb 0.00 in0.0 mm 0.00 in0.0 mm 0.27 in6.9 mm
08:35 PM 55.5°F13.1°C 53.5°F11.9°C 93% 4.0 mph SSE6.4 kmh SSE 8.0 mph12.9 kmh 29.46 in997.6 mb 0.00 in0.0 mm 0.00 in0.0 mm 0.27 in6.9 mm
08:39 PM 55.5°F13.1°C 53.5°F11.9°C 93% 2.0 mph SSE3.2 kmh SSE 10.0 mph16.1 kmh 29.45 in997.3 mb 0.00 in0.0 mm 0.00 in0.0 mm 0.27 in6.9 mm
08:44 PM 55.6°F13.1°C 53.6°F12.0°C 93% 11.0 mph SSE17.7 kmh SSE 11.0 mph17.7 kmh 29.45 in997.3 mb 0.00 in0.0 mm 0.00 in0.0 mm 0.27 in6.9 mm
08:50 PM 55.6°F13.1°C 53.6°F12.0°C 93% 1.0 mph S1.6 kmh S 8.0 mph12.9 kmh 29.45 in997.3 mb 0.00 in0.0 mm 0.00 in0.0 mm 0.27 in6.9 mm
08:55 PM 55.7°F13.2°C 53.7°F12.1°C 93% 3.0 mph SSE4.8 kmh SSE 9.0 mph14.5 kmh 29.45 in997.3 mb 0.01 in0.3 mm 0.12 in3.0 mm 0.28 in7.1 mm
09:00 PM 55.7°F13.2°C 53.7°F12.1°C 93% 5.0 mph SSE8.0 kmh SSE 9.0 mph14.5 kmh 29.44 in997.0 mb 0.01 in0.3 mm 0.00 in0.0 mm 0.28 in7.1 mm
09:05 PM 55.8°F13.2°C 53.8°F12.1°C 93% 7.0 mph SSW11.3 kmh SSW 9.0 mph14.5 kmh 29.45 in997.3 mb 0.01 in0.3 mm 0.00 in0.0 mm 0.28 in7.1 mm
09:10 PM 55.8°F13.2°C 53.8°F12.1°C 93% 4.0 mph S6.4 kmh S 9.0 mph14.5 kmh 29.44 in997.0 mb 0.01 in0.3 mm 0.00 in0.0 mm 0.28 in7.1 mm
09:15 PM 55.9°F13.3°C 53.9°F12.2°C 93% 10.0 mph SSE16.1 kmh SSE 10.0 mph16.1 kmh 29.45 in997.3 mb 0.01 in0.3 mm 0.00 in0.0 mm 0.28 in7.1 mm
09:20 PM 56.0°F13.3°C 54.0°F12.2°C 93% 6.0 mph S9.7 kmh S 11.0 mph17.7 kmh 29.44 in997.0 mb 0.01 in0.3 mm 0.00 in0.0 mm 0.28 in7.1 mm
09:25 PM 56.1°F13.4°C 54.1°F12.3°C 93% 3.0 mph SSE4.8 kmh SSE 10.0 mph16.1 kmh 29.44 in997.0 mb 0.01 in0.3 mm 0.00 in0.0 mm 0.28 in7.1 mm
09:30 PM 56.2°F13.4°C 54.2°F12.3°C 93% Calm Calm 8.0 mph12.9 kmh 29.44 in997.0 mb 0.01 in0.3 mm 0.00 in0.0 mm 0.28 in7.1 mm
09:35 PM 56.3°F13.5°C 54.3°F12.4°C 93% 3.0 mph SSE4.8 kmh SSE 8.0 mph12.9 kmh 29.44 in997.0 mb 0.01 in0.3 mm 0.00 in0.0 mm 0.28 in7.1 mm
09:39 PM 56.4°F13.6°C 54.4°F12.4°C 93% 8.0 mph SE12.9 kmh SE 11.0 mph17.7 kmh 29.44 in997.0 mb 0.01 in0.3 mm 0.00 in0.0 mm 0.28 in7.1 mm
09:45 PM 56.6°F13.7°C 54.6°F12.6°C 93% 5.0 mph SSW8.0 kmh SSW 8.0 mph12.9 kmh 29.44 in997.0 mb 0.01 in0.3 mm 0.00 in0.0 mm 0.28 in7.1 mm
09:50 PM 56.7°F13.7°C 54.7°F12.6°C 93% 2.0 mph S3.2 kmh S 11.0 mph17.7 kmh 29.44 in997.0 mb 0.01 in0.3 mm 0.00 in0.0 mm 0.28 in7.1 mm
09:55 PM 56.8°F13.8°C 54.8°F12.7°C 93% 3.0 mph SSE4.8 kmh SSE 10.0 mph16.1 kmh 29.44 in997.0 mb 0.01 in0.3 mm 0.00 in0.0 mm 0.28 in7.1 mm
10:00 PM 56.8°F13.8°C 54.8°F12.7°C 93% 2.0 mph SE3.2 kmh SE 7.0 mph11.3 kmh 29.43 in996.6 mb 0.00 in0.0 mm 0.00 in0.0 mm 0.28 in7.1 mm
10:05 PM 56.8°F13.8°C 54.8°F12.7°C 93% 7.0 mph SSW11.3 kmh SSW 7.0 mph11.3 kmh 29.43 in996.6 mb 0.00 in0.0 mm 0.00 in0.0 mm 0.28 in7.1 mm
10:10 PM 56.9°F13.8°C 54.9°F12.7°C 93% 5.0 mph SSE8.0 kmh SSE 8.0 mph12.9 kmh 29.43 in996.6 mb 0.00 in0.0 mm 0.00 in0.0 mm 0.28 in7.1 mm
10:15 PM 56.9°F13.8°C 54.9°F12.7°C 93% 7.0 mph SSE11.3 kmh SSE 10.0 mph16.1 kmh 29.43 in996.6 mb 0.00 in0.0 mm 0.00 in0.0 mm 0.28 in7.1 mm
10:20 PM 57.0°F13.9°C 55.0°F12.8°C 93% 4.0 mph S6.4 kmh S 9.0 mph14.5 kmh 29.43 in996.6 mb 0.00 in0.0 mm 0.00 in0.0 mm 0.28 in7.1 mm
10:25 PM 57.0°F13.9°C 55.0°F12.8°C 93% 7.0 mph SSE11.3 kmh SSE 9.0 mph14.5 kmh 29.43 in996.6 mb 0.00 in0.0 mm 0.00 in0.0 mm 0.28 in7.1 mm
10:30 PM 56.9°F13.8°C 54.9°F12.7°C 93% 2.0 mph S3.2 kmh S 11.0 mph17.7 kmh 29.43 in996.6 mb 0.00 in0.0 mm 0.00 in0.0 mm 0.28 in7.1 mm
10:35 PM 56.9°F13.8°C 54.9°F12.7°C 93% 2.0 mph SE3.2 kmh SE 8.0 mph12.9 kmh 29.43 in996.6 mb 0.00 in0.0 mm 0.00 in0.0 mm 0.28 in7.1 mm
10:40 PM 56.9°F13.8°C 54.9°F12.7°C 93% 3.0 mph S4.8 kmh S 7.0 mph11.3 kmh 29.43 in996.6 mb 0.00 in0.0 mm 0.00 in0.0 mm 0.28 in7.1 mm
10:45 PM 56.9°F13.8°C 54.9°F12.7°C 93% 3.0 mph SE4.8 kmh SE 10.0 mph16.1 kmh 29.43 in996.6 mb 0.00 in0.0 mm 0.00 in0.0 mm 0.28 in7.1 mm
10:50 PM 57.0°F13.9°C 55.0°F12.8°C 93% 10.0 mph S16.1 kmh S 10.0 mph16.1 kmh 29.43 in996.6 mb 0.00 in0.0 mm 0.00 in0.0 mm 0.28 in7.1 mm
10:55 PM 57.0°F13.9°C 55.0°F12.8°C 93% 4.0 mph SSE6.4 kmh SSE 7.0 mph11.3 kmh 29.42 in996.3 mb 0.00 in0.0 mm 0.00 in0.0 mm 0.28 in7.1 mm
11:00 PM 57.0°F13.9°C 55.0°F12.8°C 93% 6.0 mph S9.7 kmh S 6.0 mph9.7 kmh 29.43 in996.6 mb 0.00 in0.0 mm 0.00 in0.0 mm 0.28 in7.1 mm
11:05 PM 57.1°F13.9°C 55.1°F12.8°C 93% 5.0 mph S8.0 kmh S 7.0 mph11.3 kmh 29.43 in996.6 mb 0.00 in0.0 mm 0.00 in0.0 mm 0.28 in7.1 mm
11:10 PM 57.0°F13.9°C 55.0°F12.8°C 93% Calm Calm 6.0 mph9.7 kmh 29.43 in996.6 mb 0.00 in0.0 mm 0.00 in0.0 mm 0.28 in7.1 mm
11:15 PM 57.0°F13.9°C 55.0°F12.8°C 93% Calm Calm 10.0 mph16.1 kmh 29.43 in996.6 mb 0.00 in0.0 mm 0.00 in0.0 mm 0.28 in7.1 mm
11:20 PM 56.8°F13.8°C 54.8°F12.7°C 93% 5.0 mph S8.0 kmh S 7.0 mph11.3 kmh 29.43 in996.6 mb 0.00 in0.0 mm 0.00 in0.0 mm 0.28 in7.1 mm
11:25 PM 56.8°F13.8°C 54.8°F12.7°C 93% 4.0 mph S6.4 kmh S 8.0 mph12.9 kmh 29.42 in996.3 mb 0.00 in0.0 mm 0.00 in0.0 mm 0.28 in7.1 mm
11:30 PM 56.8°F13.8°C 54.8°F12.7°C 93% 1.0 mph SSE1.6 kmh SSE 9.0 mph14.5 kmh 29.42 in996.3 mb 0.00 in0.0 mm 0.00 in0.0 mm 0.28 in7.1 mm
11:34 PM 56.8°F13.8°C 54.8°F12.7°C 93% 4.0 mph S6.4 kmh S 7.0 mph11.3 kmh 29.42 in996.3 mb 0.00 in0.0 mm 0.00 in0.0 mm 0.28 in7.1 mm
11:40 PM 56.9°F13.8°C 54.9°F12.7°C 93% 4.0 mph SSE6.4 kmh SSE 9.0 mph14.5 kmh 29.42 in996.3 mb 0.00 in0.0 mm 0.00 in0.0 mm 0.28 in7.1 mm
11:44 PM 56.9°F13.8°C 54.9°F12.7°C 93% 6.0 mph S9.7 kmh S 9.0 mph14.5 kmh 29.42 in996.3 mb 0.00 in0.0 mm 0.00 in0.0 mm 0.28 in7.1 mm
11:50 PM 56.9°F13.8°C 54.9°F12.7°C 93% 3.0 mph SSW4.8 kmh SSW 8.0 mph12.9 kmh 29.42 in996.3 mb 0.01 in0.3 mm 0.10 in2.5 mm 0.29 in7.4 mm
11:55 PM 56.9°F13.8°C 54.9°F12.7°C 93% 1.0 mph S1.6 kmh S 8.0 mph12.9 kmh 29.42 in996.3 mb 0.01 in0.3 mm 0.00 in0.0 mm 0.29 in7.4 mm